sensor_id;sensor_type;location;lat;lon;timestamp;P1;durP1;ratioP1;P2;durP2;ratioP2
325;SDS011;150;52.352;14.058;2023-02-16T00:01:07;25.80;;;16.60;;
325;SDS011;150;52.352;14.058;2023-02-16T00:03:46;28.88;;;16.60;;
325;SDS011;150;52.352;14.058;2023-02-16T00:06:13;24.05;;;16.30;;
325;SDS011;150;52.352;14.058;2023-02-16T00:08:41;28.02;;;16.58;;
325;SDS011;150;52.352;14.058;2023-02-16T00:11:13;25.20;;;15.93;;
325;SDS011;150;52.352;14.058;2023-02-16T00:14:00;22.50;;;14.32;;
325;SDS011;150;52.352;14.058;2023-02-16T00:16:28;27.48;;;16.95;;
325;SDS011;150;52.352;14.058;2023-02-16T00:18:56;27.33;;;15.32;;
325;SDS011;150;52.352;14.058;2023-02-16T00:21:22;26.98;;;14.70;;
325;SDS011;150;52.352;14.058;2023-02-16T00:23:49;26.98;;;14.70;;
325;SDS011;150;52.352;14.058;2023-02-16T00:26:17;23.25;;;15.48;;
325;SDS011;150;52.352;14.058;2023-02-16T00:28:45;19.67;;;14.00;;
325;SDS011;150;52.352;14.058;2023-02-16T00:31:16;23.20;;;14.75;;
325;SDS011;150;52.352;14.058;2023-02-16T00:33:44;21.63;;;15.35;;
325;SDS011;150;52.352;14.058;2023-02-16T00:36:12;25.98;;;15.68;;
325;SDS011;150;52.352;14.058;2023-02-16T00:38:38;24.23;;;15.55;;
325;SDS011;150;52.352;14.058;2023-02-16T00:41:09;23.77;;;15.10;;
325;SDS011;150;52.352;14.058;2023-02-16T00:43:59;20.75;;;13.23;;
325;SDS011;150;52.352;14.058;2023-02-16T00:46:26;23.20;;;16.25;;
325;SDS011;150;52.352;14.058;2023-02-16T00:48:53;23.05;;;14.13;;
325;SDS011;150;52.352;14.058;2023-02-16T00:51:21;24.92;;;14.95;;
325;SDS011;150;52.352;14.058;2023-02-16T00:53:47;19.67;;;13.63;;
325;SDS011;150;52.352;14.058;2023-02-16T00:56:15;24.50;;;15.80;;
325;SDS011;150;52.352;14.058;2023-02-16T00:58:44;22.60;;;13.98;;
325;SDS011;150;52.352;14.058;2023-02-16T01:01:14;27.20;;;13.75;;
325;SDS011;150;52.352;14.058;2023-02-16T01:03:42;18.60;;;12.15;;
325;SDS011;150;52.352;14.058;2023-02-16T01:06:09;19.33;;;12.40;;
325;SDS011;150;52.352;14.058;2023-02-16T01:08:55;20.50;;;14.65;;
325;SDS011;150;52.352;14.058;2023-02-16T01:11:50;21.67;;;13.05;;
325;SDS011;150;52.352;14.058;2023-02-16T01:14:16;21.90;;;12.53;;
325;SDS011;150;52.352;14.058;2023-02-16T01:16:43;24.67;;;13.10;;
325;SDS011;150;52.352;14.058;2023-02-16T01:19:10;17.45;;;10.88;;
325;SDS011;150;52.352;14.058;2023-02-16T01:21:37;19.42;;;12.30;;
325;SDS011;150;52.352;14.058;2023-02-16T01:24:05;24.63;;;12.98;;
325;SDS011;150;52.352;14.058;2023-02-16T01:26:35;22.65;;;13.68;;
325;SDS011;150;52.352;14.058;2023-02-16T01:29:03;20.27;;;11.88;;
325;SDS011;150;52.352;14.058;2023-02-16T01:31:30;17.33;;;10.07;;
325;SDS011;150;52.352;14.058;2023-02-16T01:33:59;20.55;;;10.98;;
325;SDS011;150;52.352;14.058;2023-02-16T01:36:27;17.77;;;9.95;;
325;SDS011;150;52.352;14.058;2023-02-16T01:38:58;15.70;;;10.82;;
325;SDS011;150;52.352;14.058;2023-02-16T01:41:28;17.00;;;8.95;;
325;SDS011;150;52.352;14.058;2023-02-16T01:44:08;17.30;;;9.95;;
325;SDS011;150;52.352;14.058;2023-02-16T01:46:42;17.02;;;8.73;;
325;SDS011;150;52.352;14.058;2023-02-16T01:49:13;18.95;;;10.80;;
325;SDS011;150;52.352;14.058;2023-02-16T01:51:45;16.63;;;10.13;;
325;SDS011;150;52.352;14.058;2023-02-16T01:54:31;17.42;;;10.75;;
325;SDS011;150;52.352;14.058;2023-02-16T01:57:07;19.48;;;10.40;;
325;SDS011;150;52.352;14.058;2023-02-16T01:59:59;14.23;;;9.30;;
325;SDS011;150;52.352;14.058;2023-02-16T02:02:35;16.80;;;10.40;;
325;SDS011;150;52.352;14.058;2023-02-16T02:05:05;14.18;;;9.70;;
325;SDS011;150;52.352;14.058;2023-02-16T02:07:59;14.25;;;9.23;;
325;SDS011;150;52.352;14.058;2023-02-16T02:10:45;16.10;;;10.20;;
325;SDS011;150;52.352;14.058;2023-02-16T02:13:23;16.37;;;10.00;;
325;SDS011;150;52.352;14.058;2023-02-16T02:15:54;16.95;;;9.77;;
325;SDS011;150;52.352;14.058;2023-02-16T02:18:23;13.15;;;9.85;;
325;SDS011;150;52.352;14.058;2023-02-16T02:20:54;13.00;;;9.07;;
325;SDS011;150;52.352;14.058;2023-02-16T02:23:46;13.93;;;9.10;;
325;SDS011;150;52.352;14.058;2023-02-16T02:29:31;14.70;;;10.82;;
325;SDS011;150;52.352;14.058;2023-02-16T02:32:17;13.00;;;9.90;;
325;SDS011;150;52.352;14.058;2023-02-16T02:34:55;13.80;;;9.98;;
325;SDS011;150;52.352;14.058;2023-02-16T02:37:38;16.67;;;10.33;;
325;SDS011;150;52.352;14.058;2023-02-16T02:40:14;14.17;;;9.50;;
325;SDS011;150;52.352;14.058;2023-02-16T02:42:50;15.52;;;10.55;;
325;SDS011;150;52.352;14.058;2023-02-16T02:45:29;14.98;;;10.02;;
325;SDS011;150;52.352;14.058;2023-02-16T02:48:04;13.17;;;9.30;;
325;SDS011;150;52.352;14.058;2023-02-16T02:50:37;16.55;;;10.65;;
325;SDS011;150;52.352;14.058;2023-02-16T02:53:30;15.00;;;9.73;;
325;SDS011;150;52.352;14.058;2023-02-16T02:55:58;15.85;;;9.40;;
325;SDS011;150;52.352;14.058;2023-02-16T02:58:44;16.13;;;9.50;;
325;SDS011;150;52.352;14.058;2023-02-16T03:01:32;17.42;;;10.05;;
325;SDS011;150;52.352;14.058;2023-02-16T03:04:00;14.00;;;9.93;;
325;SDS011;150;52.352;14.058;2023-02-16T03:06:31;16.48;;;10.35;;
325;SDS011;150;52.352;14.058;2023-02-16T03:09:01;16.95;;;10.63;;
325;SDS011;150;52.352;14.058;2023-02-16T03:11:31;14.55;;;10.10;;
325;SDS011;150;52.352;14.058;2023-02-16T03:14:15;14.48;;;9.98;;
325;SDS011;150;52.352;14.058;2023-02-16T03:16:46;15.20;;;9.35;;
325;SDS011;150;52.352;14.058;2023-02-16T03:19:30;14.57;;;10.30;;
325;SDS011;150;52.352;14.058;2023-02-16T03:22:14;15.07;;;10.02;;
325;SDS011;150;52.352;14.058;2023-02-16T03:24:58;14.90;;;9.00;;
325;SDS011;150;52.352;14.058;2023-02-16T03:27:42;14.07;;;10.30;;
325;SDS011;150;52.352;14.058;2023-02-16T03:30:26;15.40;;;9.10;;
325;SDS011;150;52.352;14.058;2023-02-16T03:32:56;20.83;;;11.38;;
325;SDS011;150;52.352;14.058;2023-02-16T03:35:23;16.13;;;11.05;;
325;SDS011;150;52.352;14.058;2023-02-16T03:37:51;14.43;;;10.20;;
325;SDS011;150;52.352;14.058;2023-02-16T03:40:17;18.35;;;12.40;;
325;SDS011;150;52.352;14.058;2023-02-16T03:42:57;16.63;;;11.50;;
325;SDS011;150;52.352;14.058;2023-02-16T03:45:26;14.10;;;10.35;;
325;SDS011;150;52.352;14.058;2023-02-16T03:47:53;15.55;;;10.52;;
325;SDS011;150;52.352;14.058;2023-02-16T03:50:26;15.48;;;9.65;;
325;SDS011;150;52.352;14.058;2023-02-16T03:52:53;15.52;;;10.27;;
325;SDS011;150;52.352;14.058;2023-02-16T03:55:30;14.55;;;9.73;;
325;SDS011;150;52.352;14.058;2023-02-16T03:57:57;14.00;;;10.07;;
325;SDS011;150;52.352;14.058;2023-02-16T04:00:24;14.68;;;10.57;;
325;SDS011;150;52.352;14.058;2023-02-16T04:02:51;19.55;;;12.82;;
325;SDS011;150;52.352;14.058;2023-02-16T04:05:17;21.52;;;15.30;;
325;SDS011;150;52.352;14.058;2023-02-16T04:07:47;22.00;;;13.68;;
325;SDS011;150;52.352;14.058;2023-02-16T04:10:13;19.20;;;11.07;;
325;SDS011;150;52.352;14.058;2023-02-16T04:12:40;16.75;;;11.10;;
325;SDS011;150;52.352;14.058;2023-02-16T04:15:07;13.52;;;10.40;;
325;SDS011;150;52.352;14.058;2023-02-16T04:17:35;15.15;;;10.93;;
325;SDS011;150;52.352;14.058;2023-02-16T04:20:02;17.15;;;11.73;;
325;SDS011;150;52.352;14.058;2023-02-16T04:22:30;18.38;;;11.40;;
325;SDS011;150;52.352;14.058;2023-02-16T04:25:03;14.52;;;9.98;;
325;SDS011;150;52.352;14.058;2023-02-16T04:27:30;17.45;;;10.68;;
325;SDS011;150;52.352;14.058;2023-02-16T04:29:58;15.57;;;10.52;;
325;SDS011;150;52.352;14.058;2023-02-16T04:32:24;15.37;;;10.07;;
325;SDS011;150;52.352;14.058;2023-02-16T04:34:51;19.60;;;11.37;;
325;SDS011;150;52.352;14.058;2023-02-16T04:37:25;17.20;;;9.93;;
325;SDS011;150;52.352;14.058;2023-02-16T04:39:51;18.87;;;11.60;;
325;SDS011;150;52.352;14.058;2023-02-16T04:42:19;15.85;;;10.38;;
325;SDS011;150;52.352;14.058;2023-02-16T04:44:48;15.85;;;11.18;;
325;SDS011;150;52.352;14.058;2023-02-16T04:47:15;14.98;;;9.82;;
325;SDS011;150;52.352;14.058;2023-02-16T04:49:41;14.40;;;10.55;;
325;SDS011;150;52.352;14.058;2023-02-16T04:52:09;15.75;;;9.45;;
325;SDS011;150;52.352;14.058;2023-02-16T04:54:36;16.23;;;9.40;;
325;SDS011;150;52.352;14.058;2023-02-16T04:57:03;16.50;;;10.30;;
325;SDS011;150;52.352;14.058;2023-02-16T04:59:32;17.33;;;12.07;;
325;SDS011;150;52.352;14.058;2023-02-16T05:01:58;19.07;;;11.93;;
325;SDS011;150;52.352;14.058;2023-02-16T05:04:25;16.45;;;9.70;;
325;SDS011;150;52.352;14.058;2023-02-16T05:06:54;18.17;;;11.05;;
325;SDS011;150;52.352;14.058;2023-02-16T05:09:20;15.35;;;9.82;;
325;SDS011;150;52.352;14.058;2023-02-16T05:11:47;17.05;;;10.52;;
325;SDS011;150;52.352;14.058;2023-02-16T05:14:35;15.80;;;11.10;;
325;SDS011;150;52.352;14.058;2023-02-16T05:17:09;15.55;;;11.02;;
325;SDS011;150;52.352;14.058;2023-02-16T05:19:37;13.18;;;9.70;;
325;SDS011;150;52.352;14.058;2023-02-16T05:22:05;14.80;;;9.80;;
325;SDS011;150;52.352;14.058;2023-02-16T05:24:32;13.05;;;10.20;;
325;SDS011;150;52.352;14.058;2023-02-16T05:27:01;15.98;;;10.07;;
325;SDS011;150;52.352;14.058;2023-02-16T05:29:28;14.63;;;10.38;;
325;SDS011;150;52.352;14.058;2023-02-16T05:31:56;16.33;;;10.52;;
325;SDS011;150;52.352;14.058;2023-02-16T05:34:24;12.82;;;9.63;;
325;SDS011;150;52.352;14.058;2023-02-16T05:36:51;15.02;;;10.48;;
325;SDS011;150;52.352;14.058;2023-02-16T05:39:19;14.93;;;11.50;;
325;SDS011;150;52.352;14.058;2023-02-16T05:41:46;18.52;;;11.63;;
325;SDS011;150;52.352;14.058;2023-02-16T05:44:13;18.55;;;12.05;;
325;SDS011;150;52.352;14.058;2023-02-16T05:46:40;21.73;;;12.70;;
325;SDS011;150;52.352;14.058;2023-02-16T05:49:09;20.20;;;12.23;;
325;SDS011;150;52.352;14.058;2023-02-16T05:51:36;16.73;;;11.13;;
325;SDS011;150;52.352;14.058;2023-02-16T05:54:03;17.98;;;12.63;;
325;SDS011;150;52.352;14.058;2023-02-16T05:56:31;16.47;;;11.07;;
325;SDS011;150;52.352;14.058;2023-02-16T05:58:58;15.90;;;10.73;;
325;SDS011;150;52.352;14.058;2023-02-16T06:01:25;17.50;;;11.02;;
325;SDS011;150;52.352;14.058;2023-02-16T06:03:52;13.63;;;10.10;;
325;SDS011;150;52.352;14.058;2023-02-16T06:06:20;18.42;;;11.25;;
325;SDS011;150;52.352;14.058;2023-02-16T06:08:47;21.40;;;11.88;;
325;SDS011;150;52.352;14.058;2023-02-16T06:11:14;16.60;;;10.80;;
325;SDS011;150;52.352;14.058;2023-02-16T06:13:58;17.00;;;11.13;;
325;SDS011;150;52.352;14.058;2023-02-16T06:16:27;18.13;;;11.00;;
325;SDS011;150;52.352;14.058;2023-02-16T06:18:55;18.60;;;11.90;;
325;SDS011;150;52.352;14.058;2023-02-16T06:21:25;20.08;;;13.10;;
325;SDS011;150;52.352;14.058;2023-02-16T06:23:52;16.55;;;10.68;;
325;SDS011;150;52.352;14.058;2023-02-16T06:26:19;18.38;;;12.52;;
325;SDS011;150;52.352;14.058;2023-02-16T06:28:46;19.63;;;13.23;;
325;SDS011;150;52.352;14.058;2023-02-16T06:31:13;16.92;;;11.52;;
325;SDS011;150;52.352;14.058;2023-02-16T06:33:39;18.40;;;11.85;;
325;SDS011;150;52.352;14.058;2023-02-16T06:36:07;18.27;;;12.00;;
325;SDS011;150;52.352;14.058;2023-02-16T06:38:35;16.15;;;11.25;;
325;SDS011;150;52.352;14.058;2023-02-16T06:41:02;17.23;;;12.13;;
325;SDS011;150;52.352;14.058;2023-02-16T06:43:29;14.35;;;10.45;;
325;SDS011;150;52.352;14.058;2023-02-16T06:45:55;17.23;;;11.30;;
325;SDS011;150;52.352;14.058;2023-02-16T06:48:22;20.23;;;12.98;;
325;SDS011;150;52.352;14.058;2023-02-16T06:50:49;18.55;;;12.07;;
325;SDS011;150;52.352;14.058;2023-02-16T06:53:16;19.92;;;12.60;;
325;SDS011;150;52.352;14.058;2023-02-16T06:55:44;17.95;;;10.90;;
325;SDS011;150;52.352;14.058;2023-02-16T06:58:11;21.55;;;11.93;;
325;SDS011;150;52.352;14.058;2023-02-16T07:00:37;16.55;;;11.57;;
325;SDS011;150;52.352;14.058;2023-02-16T07:03:04;16.58;;;11.35;;
325;SDS011;150;52.352;14.058;2023-02-16T07:05:31;16.73;;;11.40;;
325;SDS011;150;52.352;14.058;2023-02-16T07:08:00;14.73;;;10.15;;
325;SDS011;150;52.352;14.058;2023-02-16T07:10:27;22.20;;;13.83;;
325;SDS011;150;52.352;14.058;2023-02-16T07:12:55;16.23;;;12.10;;
325;SDS011;150;52.352;14.058;2023-02-16T07:15:21;21.38;;;13.35;;
325;SDS011;150;52.352;14.058;2023-02-16T07:17:48;20.73;;;12.93;;
325;SDS011;150;52.352;14.058;2023-02-16T07:20:15;17.17;;;12.45;;
325;SDS011;150;52.352;14.058;2023-02-16T07:22:43;13.77;;;11.00;;
325;SDS011;150;52.352;14.058;2023-02-16T07:25:09;17.60;;;11.77;;
325;SDS011;150;52.352;14.058;2023-02-16T07:27:36;17.17;;;12.23;;
325;SDS011;150;52.352;14.058;2023-02-16T07:30:04;17.70;;;11.88;;
325;SDS011;150;52.352;14.058;2023-02-16T07:32:32;20.38;;;12.00;;
325;SDS011;150;52.352;14.058;2023-02-16T07:34:59;16.67;;;10.85;;
325;SDS011;150;52.352;14.058;2023-02-16T07:37:26;15.73;;;11.80;;
325;SDS011;150;52.352;14.058;2023-02-16T07:39:52;19.35;;;10.98;;
325;SDS011;150;52.352;14.058;2023-02-16T07:42:19;15.70;;;11.30;;
325;SDS011;150;52.352;14.058;2023-02-16T07:44:46;17.00;;;11.20;;
325;SDS011;150;52.352;14.058;2023-02-16T07:47:14;19.30;;;12.80;;
325;SDS011;150;52.352;14.058;2023-02-16T07:49:40;19.45;;;11.73;;
325;SDS011;150;52.352;14.058;2023-02-16T07:52:07;16.55;;;11.80;;
325;SDS011;150;52.352;14.058;2023-02-16T07:54:34;18.80;;;12.60;;
325;SDS011;150;52.352;14.058;2023-02-16T07:57:00;19.88;;;12.50;;
325;SDS011;150;52.352;14.058;2023-02-16T07:59:27;16.60;;;12.10;;
325;SDS011;150;52.352;14.058;2023-02-16T08:01:54;19.43;;;12.70;;
325;SDS011;150;52.352;14.058;2023-02-16T08:04:22;17.55;;;11.43;;
325;SDS011;150;52.352;14.058;2023-02-16T08:06:48;14.43;;;10.75;;
325;SDS011;150;52.352;14.058;2023-02-16T08:09:15;18.23;;;11.63;;
325;SDS011;150;52.352;14.058;2023-02-16T08:11:42;19.13;;;12.38;;
325;SDS011;150;52.352;14.058;2023-02-16T08:14:08;18.73;;;12.23;;
325;SDS011;150;52.352;14.058;2023-02-16T08:16:35;19.20;;;12.63;;
325;SDS011;150;52.352;14.058;2023-02-16T08:19:02;18.58;;;11.45;;
325;SDS011;150;52.352;14.058;2023-02-16T08:21:30;13.88;;;11.48;;
325;SDS011;150;52.352;14.058;2023-02-16T08:23:59;17.23;;;11.90;;
325;SDS011;150;52.352;14.058;2023-02-16T08:26:27;18.98;;;12.80;;
325;SDS011;150;52.352;14.058;2023-02-16T08:28:57;20.02;;;13.60;;
325;SDS011;150;52.352;14.058;2023-02-16T08:31:26;22.43;;;13.73;;
325;SDS011;150;52.352;14.058;2023-02-16T08:33:54;22.20;;;13.50;;
325;SDS011;150;52.352;14.058;2023-02-16T08:36:22;21.27;;;12.57;;
325;SDS011;150;52.352;14.058;2023-02-16T08:38:52;21.40;;;14.25;;
325;SDS011;150;52.352;14.058;2023-02-16T08:41:19;20.25;;;13.38;;
325;SDS011;150;52.352;14.058;2023-02-16T08:43:47;17.88;;;12.98;;
325;SDS011;150;52.352;14.058;2023-02-16T08:46:15;17.40;;;12.00;;
325;SDS011;150;52.352;14.058;2023-02-16T08:48:42;16.55;;;11.48;;
325;SDS011;150;52.352;14.058;2023-02-16T08:51:12;18.75;;;13.25;;
325;SDS011;150;52.352;14.058;2023-02-16T08:53:39;19.23;;;13.13;;
325;SDS011;150;52.352;14.058;2023-02-16T08:56:07;20.58;;;13.57;;
325;SDS011;150;52.352;14.058;2023-02-16T08:58:35;21.48;;;13.07;;
325;SDS011;150;52.352;14.058;2023-02-16T09:01:02;18.47;;;13.33;;
325;SDS011;150;52.352;14.058;2023-02-16T09:03:29;19.98;;;13.48;;
325;SDS011;150;52.352;14.058;2023-02-16T09:05:57;20.80;;;13.45;;
325;SDS011;150;52.352;14.058;2023-02-16T09:08:27;18.02;;;13.52;;
325;SDS011;150;52.352;14.058;2023-02-16T09:10:55;20.45;;;13.40;;
325;SDS011;150;52.352;14.058;2023-02-16T09:13:27;18.85;;;13.07;;
325;SDS011;150;52.352;14.058;2023-02-16T09:15:53;21.45;;;13.27;;
325;SDS011;150;52.352;14.058;2023-02-16T09:18:20;17.77;;;12.40;;
325;SDS011;150;52.352;14.058;2023-02-16T09:20:47;18.05;;;13.15;;
325;SDS011;150;52.352;14.058;2023-02-16T09:23:14;21.17;;;13.88;;
325;SDS011;150;52.352;14.058;2023-02-16T09:25:40;22.75;;;13.07;;
325;SDS011;150;52.352;14.058;2023-02-16T09:28:07;19.90;;;12.07;;
325;SDS011;150;52.352;14.058;2023-02-16T09:30:37;21.40;;;14.45;;
325;SDS011;150;52.352;14.058;2023-02-16T09:33:04;18.80;;;13.13;;
325;SDS011;150;52.352;14.058;2023-02-16T09:35:31;19.80;;;13.90;;
325;SDS011;150;52.352;14.058;2023-02-16T09:37:58;20.13;;;15.30;;
325;SDS011;150;52.352;14.058;2023-02-16T09:40:26;28.00;;;21.58;;
325;SDS011;150;52.352;14.058;2023-02-16T09:42:56;24.02;;;19.40;;
325;SDS011;150;52.352;14.058;2023-02-16T09:45:31;19.70;;;13.30;;
325;SDS011;150;52.352;14.058;2023-02-16T09:48:08;28.03;;;16.53;;
325;SDS011;150;52.352;14.058;2023-02-16T09:50:43;35.95;;;20.67;;
325;SDS011;150;52.352;14.058;2023-02-16T09:53:13;38.00;;;23.07;;
325;SDS011;150;52.352;14.058;2023-02-16T09:55:48;33.60;;;19.95;;
325;SDS011;150;52.352;14.058;2023-02-16T09:58:22;56.55;;;32.10;;
325;SDS011;150;52.352;14.058;2023-02-16T10:00:56;75.97;;;39.85;;
325;SDS011;150;52.352;14.058;2023-02-16T10:03:32;38.17;;;22.42;;
325;SDS011;150;52.352;14.058;2023-02-16T10:06:10;29.25;;;18.40;;
325;SDS011;150;52.352;14.058;2023-02-16T10:08:52;26.90;;;20.35;;
325;SDS011;150;52.352;14.058;2023-02-16T10:11:23;24.05;;;16.85;;
325;SDS011;150;52.352;14.058;2023-02-16T10:14:07;19.92;;;13.60;;
325;SDS011;150;52.352;14.058;2023-02-16T10:16:43;26.40;;;15.03;;
325;SDS011;150;52.352;14.058;2023-02-16T10:19:16;21.80;;;13.80;;
325;SDS011;150;52.352;14.058;2023-02-16T10:21:47;21.75;;;14.73;;
325;SDS011;150;52.352;14.058;2023-02-16T10:24:18;43.08;;;31.10;;
325;SDS011;150;52.352;14.058;2023-02-16T10:26:45;51.88;;;35.25;;
325;SDS011;150;52.352;14.058;2023-02-16T10:29:16;23.35;;;15.73;;
325;SDS011;150;52.352;14.058;2023-02-16T10:31:47;25.90;;;17.67;;
325;SDS011;150;52.352;14.058;2023-02-16T10:34:30;19.83;;;12.80;;
325;SDS011;150;52.352;14.058;2023-02-16T10:37:26;20.05;;;13.25;;
325;SDS011;150;52.352;14.058;2023-02-16T10:40:07;19.63;;;13.68;;
325;SDS011;150;52.352;14.058;2023-02-16T10:42:43;30.67;;;16.70;;
325;SDS011;150;52.352;14.058;2023-02-16T10:45:17;24.77;;;16.70;;
325;SDS011;150;52.352;14.058;2023-02-16T10:47:50;20.77;;;15.70;;
325;SDS011;150;52.352;14.058;2023-02-16T10:50:19;21.25;;;14.43;;
325;SDS011;150;52.352;14.058;2023-02-16T10:52:50;20.83;;;14.90;;
325;SDS011;150;52.352;14.058;2023-02-16T10:55:20;21.98;;;13.20;;
325;SDS011;150;52.352;14.058;2023-02-16T10:57:51;23.10;;;14.52;;
325;SDS011;150;52.352;14.058;2023-02-16T11:00:21;19.73;;;14.68;;
325;SDS011;150;52.352;14.058;2023-02-16T11:02:54;22.08;;;14.30;;
325;SDS011;150;52.352;14.058;2023-02-16T11:05:29;21.80;;;13.48;;
325;SDS011;150;52.352;14.058;2023-02-16T11:07:58;20.73;;;13.52;;
325;SDS011;150;52.352;14.058;2023-02-16T11:10:33;25.77;;;14.75;;
325;SDS011;150;52.352;14.058;2023-02-16T11:13:03;21.80;;;15.07;;
325;SDS011;150;52.352;14.058;2023-02-16T11:15:38;22.37;;;13.40;;
325;SDS011;150;52.352;14.058;2023-02-16T11:18:26;25.73;;;17.80;;
325;SDS011;150;52.352;14.058;2023-02-16T11:20:59;18.02;;;13.05;;
325;SDS011;150;52.352;14.058;2023-02-16T11:23:27;20.50;;;14.55;;
325;SDS011;150;52.352;14.058;2023-02-16T11:25:57;21.58;;;14.30;;
325;SDS011;150;52.352;14.058;2023-02-16T11:28:27;24.27;;;17.20;;
325;SDS011;150;52.352;14.058;2023-02-16T11:31:02;28.05;;;18.20;;
325;SDS011;150;52.352;14.058;2023-02-16T11:33:37;20.13;;;13.07;;
325;SDS011;150;52.352;14.058;2023-02-16T11:36:17;27.83;;;17.20;;
325;SDS011;150;52.352;14.058;2023-02-16T11:38:54;21.27;;;14.10;;
325;SDS011;150;52.352;14.058;2023-02-16T11:41:23;24.33;;;15.90;;
325;SDS011;150;52.352;14.058;2023-02-16T11:43:51;22.17;;;14.20;;
325;SDS011;150;52.352;14.058;2023-02-16T11:46:19;23.30;;;17.10;;
325;SDS011;150;52.352;14.058;2023-02-16T11:48:49;21.73;;;14.13;;
325;SDS011;150;52.352;14.058;2023-02-16T11:51:28;21.60;;;14.80;;
325;SDS011;150;52.352;14.058;2023-02-16T11:54:02;18.10;;;13.15;;
325;SDS011;150;52.352;14.058;2023-02-16T11:56:31;22.25;;;15.02;;
325;SDS011;150;52.352;14.058;2023-02-16T11:59:06;21.42;;;13.48;;
325;SDS011;150;52.352;14.058;2023-02-16T12:04:49;19.27;;;13.25;;
325;SDS011;150;52.352;14.058;2023-02-16T12:07:26;19.08;;;13.05;;
325;SDS011;150;52.352;14.058;2023-02-16T12:10:01;20.90;;;14.37;;
325;SDS011;150;52.352;14.058;2023-02-16T12:12:34;22.40;;;14.30;;
325;SDS011;150;52.352;14.058;2023-02-16T12:15:15;31.10;;;19.20;;
325;SDS011;150;52.352;14.058;2023-02-16T12:17:54;22.42;;;15.27;;
325;SDS011;150;52.352;14.058;2023-02-16T12:20:32;24.20;;;14.18;;
325;SDS011;150;52.352;14.058;2023-02-16T12:23:11;19.45;;;12.80;;
325;SDS011;150;52.352;14.058;2023-02-16T12:25:48;20.77;;;13.40;;
325;SDS011;150;52.352;14.058;2023-02-16T12:28:26;23.40;;;13.25;;
325;SDS011;150;52.352;14.058;2023-02-16T12:31:03;19.95;;;14.25;;
325;SDS011;150;52.352;14.058;2023-02-16T12:33:38;19.15;;;13.35;;
325;SDS011;150;52.352;14.058;2023-02-16T12:36:22;22.47;;;14.47;;
325;SDS011;150;52.352;14.058;2023-02-16T12:38:59;16.95;;;11.73;;
325;SDS011;150;52.352;14.058;2023-02-16T12:41:36;20.13;;;12.43;;
325;SDS011;150;52.352;14.058;2023-02-16T12:44:11;21.10;;;12.55;;
325;SDS011;150;52.352;14.058;2023-02-16T12:46:43;21.90;;;14.75;;
325;SDS011;150;52.352;14.058;2023-02-16T12:49:13;18.75;;;12.20;;
325;SDS011;150;52.352;14.058;2023-02-16T12:51:47;20.35;;;12.52;;
325;SDS011;150;52.352;14.058;2023-02-16T12:54:18;19.83;;;11.93;;
325;SDS011;150;52.352;14.058;2023-02-16T12:56:51;19.45;;;11.70;;
325;SDS011;150;52.352;14.058;2023-02-16T12:59:26;21.40;;;12.00;;
325;SDS011;150;52.352;14.058;2023-02-16T13:01:59;16.10;;;10.77;;
325;SDS011;150;52.352;14.058;2023-02-16T13:04:32;18.23;;;10.55;;
325;SDS011;150;52.352;14.058;2023-02-16T13:07:12;19.17;;;10.68;;
325;SDS011;150;52.352;14.058;2023-02-16T13:09:45;19.45;;;11.70;;
325;SDS011;150;52.352;14.058;2023-02-16T13:12:22;17.25;;;10.55;;
325;SDS011;150;52.352;14.058;2023-02-16T13:14:55;20.00;;;12.13;;
325;SDS011;150;52.352;14.058;2023-02-16T13:17:30;17.77;;;10.43;;
325;SDS011;150;52.352;14.058;2023-02-16T13:19:59;19.90;;;11.57;;
325;SDS011;150;52.352;14.058;2023-02-16T13:25:35;16.70;;;10.90;;
325;SDS011;150;52.352;14.058;2023-02-16T13:28:28;15.00;;;10.65;;
325;SDS011;150;52.352;14.058;2023-02-16T13:31:06;18.93;;;10.13;;
325;SDS011;150;52.352;14.058;2023-02-16T13:33:44;19.30;;;10.85;;
325;SDS011;150;52.352;14.058;2023-02-16T13:36:40;18.48;;;10.90;;
325;SDS011;150;52.352;14.058;2023-02-16T13:39:27;15.00;;;9.73;;
325;SDS011;150;52.352;14.058;2023-02-16T13:44:53;15.50;;;9.30;;
325;SDS011;150;52.352;14.058;2023-02-16T13:47:24;19.33;;;10.23;;
325;SDS011;150;52.352;14.058;2023-02-16T13:49:57;16.38;;;8.27;;
325;SDS011;150;52.352;14.058;2023-02-16T13:52:29;16.83;;;9.98;;
325;SDS011;150;52.352;14.058;2023-02-16T13:54:59;16.27;;;9.68;;
325;SDS011;150;52.352;14.058;2023-02-16T14:00:26;16.08;;;10.10;;
325;SDS011;150;52.352;14.058;2023-02-16T14:02:56;15.77;;;9.20;;
325;SDS011;150;52.352;14.058;2023-02-16T14:05:29;15.70;;;9.65;;
325;SDS011;150;52.352;14.058;2023-02-16T14:08:10;17.60;;;10.02;;
325;SDS011;150;52.352;14.058;2023-02-16T14:11:01;17.55;;;8.80;;
325;SDS011;150;52.352;14.058;2023-02-16T14:13:30;12.52;;;8.05;;
325;SDS011;150;52.352;14.058;2023-02-16T14:16:01;16.92;;;9.50;;
325;SDS011;150;52.352;14.058;2023-02-16T14:18:35;19.73;;;8.70;;
325;SDS011;150;52.352;14.058;2023-02-16T14:21:15;13.60;;;8.98;;
325;SDS011;150;52.352;14.058;2023-02-16T14:23:44;13.30;;;8.88;;
325;SDS011;150;52.352;14.058;2023-02-16T14:26:21;16.15;;;10.73;;
325;SDS011;150;52.352;14.058;2023-02-16T14:31:40;17.13;;;9.57;;
325;SDS011;150;52.352;14.058;2023-02-16T14:34:12;18.98;;;10.82;;
325;SDS011;150;52.352;14.058;2023-02-16T14:39:47;14.40;;;9.20;;
325;SDS011;150;52.352;14.058;2023-02-16T14:42:17;15.25;;;9.70;;
325;SDS011;150;52.352;14.058;2023-02-16T14:45:01;14.18;;;9.20;;
325;SDS011;150;52.352;14.058;2023-02-16T14:47:39;17.02;;;11.02;;
325;SDS011;150;52.352;14.058;2023-02-16T14:50:16;17.52;;;10.20;;
325;SDS011;150;52.352;14.058;2023-02-16T14:56:08;57.72;;;37.35;;
325;SDS011;150;52.352;14.058;2023-02-16T14:58:58;25.83;;;16.73;;
325;SDS011;150;52.352;14.058;2023-02-16T15:01:27;28.05;;;20.08;;
325;SDS011;150;52.352;14.058;2023-02-16T15:03:54;23.73;;;14.40;;
325;SDS011;150;52.352;14.058;2023-02-16T15:06:24;19.48;;;12.50;;
325;SDS011;150;52.352;14.058;2023-02-16T15:08:56;28.55;;;19.10;;
325;SDS011;150;52.352;14.058;2023-02-16T15:11:27;20.60;;;14.02;;
325;SDS011;150;52.352;14.058;2023-02-16T15:14:05;18.30;;;12.43;;
325;SDS011;150;52.352;14.058;2023-02-16T15:16:36;24.15;;;15.93;;
325;SDS011;150;52.352;14.058;2023-02-16T15:19:06;44.65;;;33.90;;
325;SDS011;150;52.352;14.058;2023-02-16T15:21:37;59.17;;;39.37;;
325;SDS011;150;52.352;14.058;2023-02-16T15:24:04;19.77;;;13.73;;
325;SDS011;150;52.352;14.058;2023-02-16T15:26:32;19.70;;;12.50;;
325;SDS011;150;52.352;14.058;2023-02-16T15:29:15;17.27;;;10.48;;
325;SDS011;150;52.352;14.058;2023-02-16T15:31:47;16.92;;;11.23;;
325;SDS011;150;52.352;14.058;2023-02-16T15:34:25;13.25;;;9.15;;
325;SDS011;150;52.352;14.058;2023-02-16T15:36:57;15.23;;;9.98;;
325;SDS011;150;52.352;14.058;2023-02-16T15:39:25;15.50;;;9.88;;
325;SDS011;150;52.352;14.058;2023-02-16T15:42:02;15.70;;;10.35;;
325;SDS011;150;52.352;14.058;2023-02-16T15:44:42;15.00;;;9.80;;
325;SDS011;150;52.352;14.058;2023-02-16T15:47:10;15.75;;;9.95;;
325;SDS011;150;52.352;14.058;2023-02-16T15:49:40;18.50;;;9.73;;
325;SDS011;150;52.352;14.058;2023-02-16T15:52:07;16.15;;;9.82;;
325;SDS011;150;52.352;14.058;2023-02-16T15:54:37;17.25;;;9.63;;